Skip Navigation LinksHome page > Weather > Current weather Skip Navigation Links

Current Weather

San Diego Intl-Lindbergh Fld, San Diego

For information only: do not use for flight planning or navigation.
Latest weather
Observation time Sunday, May 26, 2019 8:51 AM PDT
Local time Sunday, May 26, 2019 9:05 AM PDT
Flight conditions Visual Meteorological Conditions
Winds
Wind direction West-Northwest (290°)
Wind speed 7 mph
Visibility 10 mi.
Sky condition
Ceiling 4,100 ft. broken clouds
Cloud layer scattered clouds 2,800 ft.
Cloud layer broken clouds 4,100 ft.
Temperature 61°F
Dewpoint 53°F
Altimeter 29.96 in.Hg
Precipitation
Rain ended 7:58 AM
Precipitation last hour trace
Derived measurements
Relative humidity 75%
Density altitude 293 ft.
Sea-level pressure 29.96 in.Hg
Remarks
Automated weather observing station with precipitation discriminator.
METAR KSAN 261551Z 29006KT 10SM SCT028 BKN041 16/12 A2996 RMK AO2 RAE1458 SLP146 P0000 T01610117

Settings

Location code

InnerDrive.Weather 4.0.6770.0 Release CLR 4.0.30319.42000
Copyright ©2018 Inner Drive Technology. All rights reserved. Portions Copyright ©1986-2018 David Braverman.

Find weather

Site navigation


Skip Navigation Links

Place info

Page info

PayPal - The safer, easier way to pay online!

Return home.

Copyright ©2019 Inner Drive Technology. Purveyors of fine, hand-crafted computer software. Page printed 2019-05-26T16:05:59 UTC.